Time;durP1;ratioP1;P1;durP2;ratioP2;P2;SDS_P1;SDS_P2;PMS_P1;PMS_P2;Temp;Humidity;BMP_temperature;BMP_pressure;BME280_temperature;BME280_humidity;BME280_pressure;Samples;Min_cycle;Max_cycle;Signal;HPM_P1;HPM_P2
2023/05/09 00:02:07;;;;;;;;;2.33;2.33;;;;;-147.47;100.00;64613.53;5072194;28;45385;-73
2023/05/09 00:04:34;;;;;;;;;3.00;3.00;;;;;-147.47;100.00;64613.53;5065009;28;45701;-72
2023/05/09 00:07:00;;;;;;;;;2.50;2.50;;;;;-147.47;100.00;64613.53;5077303;27;45905;-72
2023/05/09 00:09:26;;;;;;;;;1.25;1.25;;;;;-147.47;100.00;64613.53;5044125;28;46665;-73
2023/05/09 00:11:51;;;;;;;;;3.00;2.00;;;;;-147.47;100.00;64613.53;5075296;27;45764;-72
2023/05/09 00:14:17;;;;;;;;;2.25;2.25;;;;;-147.47;100.00;64613.53;5074955;28;45748;-73
2023/05/09 00:16:43;;;;;;;;;2.75;2.75;;;;;-147.47;100.00;64613.53;5075093;28;45524;-72
2023/05/09 00:19:10;;;;;;;;;5.50;4.50;;;;;-147.47;100.00;64613.53;5056996;28;45845;-72
2023/05/09 00:21:35;;;;;;;;;2.25;2.25;;;;;-147.47;100.00;64613.53;5073739;28;48016;-73
2023/05/09 00:24:01;;;;;;;;;4.00;2.50;;;;;-147.47;100.00;64613.53;5072773;28;45655;-73
2023/05/09 00:26:27;;;;;;;;;3.25;3.25;;;;;-147.47;100.00;64613.53;5070360;28;45457;-75
2023/05/09 00:28:52;;;;;;;;;4.00;3.00;;;;;-147.47;100.00;64613.53;5055952;28;45904;-71
2023/05/09 00:31:19;;;;;;;;;3.00;3.00;;;;;-147.47;100.00;64613.53;5054885;28;47088;-73
2023/05/09 00:33:45;;;;;;;;;3.25;3.25;;;;;-147.47;100.00;64613.53;5069131;28;45484;-71
2023/05/09 00:36:10;;;;;;;;;2.00;2.00;;;;;-147.47;100.00;64613.53;5065337;28;46296;-73
2023/05/09 00:38:36;;;;;;;;;3.00;3.00;;;;;-147.47;100.00;64613.53;5063328;28;45797;-72
2023/05/09 00:41:01;;;;;;;;;3.00;3.00;;;;;-147.47;100.00;64613.53;5069405;27;47066;-71
2023/05/09 00:43:26;;;;;;;;;4.50;3.00;;;;;-147.47;100.00;64613.53;5066611;28;46876;-72
2023/05/09 00:45:52;;;;;;;;;4.00;2.00;;;;;-147.47;100.00;64613.53;5073582;28;45457;-72
2023/05/09 00:48:20;;;;;;;;;4.75;2.00;;;;;-147.47;100.00;64613.53;5066929;28;45740;-72
2023/05/09 00:50:47;;;;;;;;;3.00;3.00;;;;;-147.47;100.00;64613.53;5072359;28;46653;-72
2023/05/09 00:53:12;;;;;;;;;3.00;3.00;;;;;-147.47;100.00;64613.53;5062467;28;45392;-72
2023/05/09 00:55:39;;;;;;;;;4.00;3.00;;;;;-147.47;100.00;64613.53;5068397;28;45470;-73
2023/05/09 00:58:05;;;;;;;;;3.50;3.50;;;;;-147.47;100.00;64613.53;5056119;28;45874;-72
2023/05/09 01:00:31;;;;;;;;;2.33;2.33;;;;;-147.47;100.00;64613.53;5069672;28;45496;-73
2023/05/09 01:02:57;;;;;;;;;4.00;2.67;;;;;-147.47;100.00;64613.53;5059075;28;45805;-72
2023/05/09 01:05:41;;;;;;;;;3.00;3.00;;;;;-147.47;100.00;64613.53;5067415;28;45544;-73
2023/05/09 01:08:17;;;;;;;;;3.00;3.00;;;;;-147.47;100.00;64613.53;5067659;28;45623;-72
2023/05/09 01:10:53;;;;;;;;;3.00;2.00;;;;;-147.47;100.00;64613.53;5068287;28;45624;-73
2023/05/09 01:13:30;;;;;;;;;3.00;3.00;;;;;-147.47;100.00;64613.53;5068142;28;45846;-73
2023/05/09 01:16:09;;;;;;;;;2.67;2.67;;;;;-147.47;100.00;64613.53;5067876;28;45714;-73
2023/05/09 01:18:45;;;;;;;;;3.00;3.00;;;;;-147.47;100.00;64613.53;5066123;28;45626;-70
2023/05/09 01:21:20;;;;;;;;;3.33;3.00;;;;;-147.47;100.00;64613.53;5062074;28;47062;-73
2023/05/09 01:24:18;;;;;;;;;6.00;2.00;;;;;-147.47;100.00;64613.53;5063195;28;45491;-73
2023/05/09 01:26:57;;;;;;;;;3.00;3.00;;;;;-147.47;100.00;64613.53;5047280;28;45504;-72
2023/05/09 01:30:01;;;;;;;;;3.00;2.00;;;;;-147.47;100.00;64613.53;5060655;28;45734;-73
2023/05/09 01:32:28;;;;;;;;;3.00;2.00;;;;;-147.47;100.00;64613.53;4980731;28;46894;-72
2023/05/09 01:34:58;;;;;;;;;3.00;3.00;;;;;-147.47;100.00;64613.53;5039311;28;45813;-72
2023/05/09 01:37:29;;;;;;;;;3.00;3.00;;;;;-147.47;100.00;64613.53;5062854;28;45925;-71
2023/05/09 01:39:59;;;;;;;;;3.67;3.00;;;;;-147.47;100.00;64613.53;5053692;28;46201;-72
2023/05/09 01:42:27;;;;;;;;;3.00;3.00;;;;;-147.47;100.00;64613.53;5055609;28;47299;-71
2023/05/09 01:44:53;;;;;;;;;3.33;2.33;;;;;-147.47;100.00;64613.53;5067497;28;45382;-73
2023/05/09 01:47:20;;;;;;;;;2.67;2.67;;;;;-147.47;100.00;64613.53;5070429;28;45456;-72
2023/05/09 01:49:46;;;;;;;;;1.33;1.00;;;;;-147.47;100.00;64613.53;5048966;28;46657;-72
2023/05/09 01:52:15;;;;;;;;;5.00;3.33;;;;;-147.47;100.00;64613.53;5050348;28;46171;-72
2023/05/09 01:54:43;;;;;;;;;3.00;3.00;;;;;-147.47;100.00;64613.53;5071974;27;45483;-72
2023/05/09 01:57:10;;;;;;;;;1.67;0.00;;;;;-147.47;100.00;64613.53;5044200;28;45966;-72
2023/05/09 01:59:39;;;;;;;;;6.00;3.00;;;;;-147.47;100.00;64613.53;5050181;28;45820;-74
2023/05/09 02:02:06;;;;;;;;;2.67;2.67;;;;;-147.47;100.00;64613.53;5063981;28;45821;-72
2023/05/09 02:04:32;;;;;;;;;3.00;3.00;;;;;-147.47;100.00;64613.53;5071652;28;45778;-72
2023/05/09 02:07:00;;;;;;;;;2.67;2.00;;;;;-147.47;100.00;64613.53;5054500;28;45498;-73
2023/05/09 02:09:26;;;;;;;;;2.00;2.00;;;;;-147.47;100.00;64613.53;5073222;28;45866;-73
2023/05/09 02:11:52;;;;;;;;;3.00;3.00;;;;;-147.47;100.00;64613.53;5071027;27;46484;-74
2023/05/09 02:14:18;;;;;;;;;2.50;2.00;;;;;-147.47;100.00;64613.53;5057738;28;46758;-73
2023/05/09 02:16:43;;;;;;;;;3.00;3.00;;;;;-147.47;100.00;64613.53;5071223;28;45926;-72
2023/05/09 02:19:08;;;;;;;;;3.67;3.67;;;;;-147.47;100.00;64613.53;5071819;28;45445;-73
2023/05/09 02:21:34;;;;;;;;;3.00;3.00;;;;;-147.47;100.00;64613.53;5045210;28;47500;-73
2023/05/09 02:24:00;;;;;;;;;4.00;2.67;;;;;-147.47;100.00;64613.53;5073763;28;45473;-72
2023/05/09 02:26:27;;;;;;;;;3.00;3.00;;;;;-147.47;100.00;64613.53;5068044;28;45851;-72
2023/05/09 02:28:53;;;;;;;;;3.33;3.33;;;;;-147.47;100.00;64613.53;5070194;28;45587;-71
2023/05/09 02:31:21;;;;;;;;;2.33;2.33;;;;;-147.47;100.00;64613.53;5067580;28;47010;-71
2023/05/09 02:33:48;;;;;;;;;4.00;2.00;;;;;-147.47;100.00;64613.53;5060167;28;45489;-73
2023/05/09 02:36:14;;;;;;;;;2.67;2.67;;;;;-147.47;100.00;64613.53;5073514;28;45809;-72
2023/05/09 02:38:40;;;;;;;;;4.00;3.00;;;;;-147.47;100.00;64613.53;5062436;28;45581;-72
2023/05/09 02:41:06;;;;;;;;;4.00;3.00;;;;;-147.47;100.00;64613.53;5051002;27;46257;-72
2023/05/09 02:43:31;;;;;;;;;2.00;2.00;;;;;-147.47;100.00;64613.53;5048974;28;45492;-72
2023/05/09 02:45:57;;;;;;;;;2.00;1.00;;;;;-147.47;100.00;64613.53;5047675;28;45954;-72
2023/05/09 02:48:23;;;;;;;;;2.50;1.00;;;;;-147.47;100.00;64613.53;5071075;28;45644;-72
2023/05/09 02:50:48;;;;;;;;;3.33;2.67;;;;;-147.47;100.00;64613.53;5066742;27;45584;-70
2023/05/09 02:53:14;;;;;;;;;6.33;4.67;;;;;-147.47;100.00;64613.53;5071978;28;45432;-71
2023/05/09 02:55:39;;;;;;;;;3.00;1.33;;;;;-147.47;100.00;64613.53;5053474;28;45923;-72
2023/05/09 02:58:05;;;;;;;;;3.00;2.75;;;;;-147.47;100.00;64613.53;5051475;27;46286;-72
2023/05/09 03:00:30;;;;;;;;;2.00;2.00;;;;;-147.47;100.00;64613.53;5069933;28;45670;-72
2023/05/09 03:02:56;;;;;;;;;3.67;2.33;;;;;-147.47;100.00;64613.53;5067125;28;45967;-71
2023/05/09 03:05:21;;;;;;;;;5.00;4.00;;;;;-147.47;100.00;64613.53;5069766;28;45729;-74
2023/05/09 03:07:47;;;;;;;;;3.50;3.00;;;;;-147.47;100.00;64613.53;5064669;27;45787;-72
2023/05/09 03:10:13;;;;;;;;;5.00;3.00;;;;;-147.47;100.00;64613.53;5056794;28;46284;-72
2023/05/09 03:12:39;;;;;;;;;4.67;3.67;;;;;-147.47;100.00;64613.53;5052518;28;45506;-73
2023/05/09 03:15:06;;;;;;;;;4.50;3.00;;;;;-147.47;100.00;64613.53;5062402;28;45372;-74
2023/05/09 03:17:31;;;;;;;;;2.50;2.50;;;;;-147.47;100.00;64613.53;5050950;28;45798;-72
2023/05/09 03:19:57;;;;;;;;;3.33;3.00;;;;;-147.47;100.00;64613.53;5068447;28;46449;-72
2023/05/09 03:22:22;;;;;;;;;4.00;2.67;;;;;-147.47;100.00;64613.53;5058342;28;45683;-73
2023/05/09 03:24:47;;;;;;;;;3.00;3.00;;;;;-147.47;100.00;64613.53;5060533;28;45458;-73
2023/05/09 03:27:13;;;;;;;;;2.67;2.00;;;;;-147.47;100.00;64613.53;5067508;28;45508;-72
2023/05/09 03:29:38;;;;;;;;;4.75;1.25;;;;;-147.47;100.00;64613.53;5068106;28;46430;-72
2023/05/09 03:32:04;;;;;;;;;2.33;2.33;;;;;-147.47;100.00;64613.53;5045080;28;45712;-72
2023/05/09 03:34:29;;;;;;;;;3.00;1.67;;;;;-147.47;100.00;64613.53;5057573;28;45868;-71
2023/05/09 03:36:56;;;;;;;;;2.33;2.00;;;;;-147.47;100.00;64613.53;5058566;28;45464;-74
2023/05/09 03:39:21;;;;;;;;;4.00;2.67;;;;;-147.47;100.00;64613.53;5066701;28;46020;-70
2023/05/09 03:41:47;;;;;;;;;2.67;2.00;;;;;-147.47;100.00;64613.53;5068853;28;45931;-72
2023/05/09 03:44:13;;;;;;;;;2.00;2.00;;;;;-147.47;100.00;64613.53;5051333;28;45894;-72
2023/05/09 03:46:38;;;;;;;;;4.67;3.00;;;;;-147.47;100.00;64613.53;5063328;28;45873;-77
2023/05/09 03:49:04;;;;;;;;;2.00;2.00;;;;;-147.47;100.00;64613.53;5064574;27;47064;-70
2023/05/09 03:51:29;;;;;;;;;1.67;1.00;;;;;-147.47;100.00;64613.53;5065735;28;46034;-72
2023/05/09 03:53:55;;;;;;;;;3.00;3.00;;;;;-147.47;100.00;64613.53;5041837;28;45549;-71
2023/05/09 03:56:21;;;;;;;;;3.33;1.33;;;;;-147.47;100.00;64613.53;5045231;28;45931;-72
2023/05/09 03:58:47;;;;;;;;;2.67;2.00;;;;;-147.47;100.00;64613.53;5073714;28;46404;-72
2023/05/09 04:01:13;;;;;;;;;4.00;1.00;;;;;-147.47;100.00;64613.53;5065433;28;45654;-72
2023/05/09 04:03:38;;;;;;;;;1.50;1.50;;;;;-147.47;100.00;64613.53;5069431;28;45507;-72
2023/05/09 04:06:04;;;;;;;;;3.00;1.33;;;;;-147.47;100.00;64613.53;5077071;27;45657;-74
2023/05/09 04:08:31;;;;;;;;;2.00;2.00;;;;;-147.47;100.00;64613.53;5070689;27;45829;-77
2023/05/09 04:10:56;;;;;;;;;3.00;1.00;;;;;-147.47;100.00;64613.53;5072718;28;45914;-76
2023/05/09 04:13:22;;;;;;;;;1.00;1.00;;;;;-147.47;100.00;64613.53;5074325;28;45479;-77
2023/05/09 04:15:47;;;;;;;;;3.00;1.00;;;;;-147.47;100.00;64613.53;5070762;28;45504;-76
2023/05/09 04:18:13;;;;;;;;;3.00;3.00;;;;;-147.47;100.00;64613.53;5067543;27;46030;-74
2023/05/09 04:20:38;;;;;;;;;1.00;1.00;;;;;-147.47;100.00;64613.53;5075368;27;45740;-75
2023/05/09 04:23:04;;;;;;;;;1.67;1.67;;;;;-147.47;100.00;64613.53;5074594;28;45670;-75
2023/05/09 04:25:30;;;;;;;;;1.00;1.00;;;;;-147.47;100.00;64613.53;5074893;27;45874;-74
2023/05/09 04:27:55;;;;;;;;;1.00;1.00;;;;;-147.47;100.00;64613.53;5070550;28;46826;-74
2023/05/09 04:30:25;;;;;;;;;1.00;1.00;;;;;-147.47;100.00;64613.53;5072386;28;45849;-77
2023/05/09 04:32:52;;;;;;;;;0.50;0.50;;;;;-147.47;100.00;64613.53;5063769;28;45524;-73
2023/05/09 04:35:18;;;;;;;;;1.50;1.50;;;;;-147.47;100.00;64613.53;5060480;28;45800;-74
2023/05/09 04:37:44;;;;;;;;;3.67;2.00;;;;;-147.47;100.00;64613.53;5063384;28;46295;-73
2023/05/09 04:40:10;;;;;;;;;2.00;2.00;;;;;-147.47;100.00;64613.53;5065644;28;45544;-73
2023/05/09 04:42:36;;;;;;;;;1.00;1.00;;;;;-147.47;100.00;64613.53;5071665;28;45844;-72
2023/05/09 04:45:02;;;;;;;;;2.25;1.00;;;;;-147.47;100.00;64613.53;5041683;28;45706;-72
2023/05/09 04:47:27;;;;;;;;;3.33;2.00;;;;;-147.47;100.00;64613.53;5068473;28;46479;-82
2023/05/09 04:49:53;;;;;;;;;4.67;2.00;;;;;-147.47;100.00;64613.53;5080266;27;45766;-82
2023/05/09 04:52:18;;;;;;;;;1.00;1.00;;;;;-147.47;100.00;64613.53;5051145;28;45340;-81
2023/05/09 04:54:44;;;;;;;;;2.00;1.00;;;;;-147.47;100.00;64613.53;5039109;28;46011;-78
2023/05/09 04:57:09;;;;;;;;;2.00;0.00;;;;;-147.47;100.00;64613.53;5064213;28;46419;-81
2023/05/09 04:59:35;;;;;;;;;3.00;2.00;;;;;-147.47;100.00;64613.53;5057790;28;45499;-82
2023/05/09 05:02:01;;;;;;;;;2.00;2.00;;;;;-147.47;100.00;64613.53;5066984;28;45382;-80
2023/05/09 05:04:27;;;;;;;;;1.00;1.00;;;;;-147.47;100.00;64613.53;5055664;28;45609;-82
2023/05/09 05:06:53;;;;;;;;;1.67;1.67;;;;;-147.47;100.00;64613.53;5065964;28;45804;-81
2023/05/09 05:09:18;;;;;;;;;1.00;1.00;;;;;-147.47;100.00;64613.53;5067835;28;45495;-80
2023/05/09 05:11:44;;;;;;;;;2.00;2.00;;;;;-147.47;100.00;64613.53;5041768;28;45355;-82
2023/05/09 05:14:10;;;;;;;;;2.00;2.00;;;;;-147.47;100.00;64613.53;5056780;28;45363;-81
2023/05/09 05:16:35;;;;;;;;;1.00;1.00;;;;;-147.47;100.00;64613.53;5054101;28;45478;-81
2023/05/09 05:19:00;;;;;;;;;2.00;1.00;;;;;-147.47;100.00;64613.53;5039352;28;45426;-82
2023/05/09 05:21:26;;;;;;;;;1.00;1.00;;;;;-147.47;100.00;64613.53;5053489;28;45659;-79
2023/05/09 05:23:51;;;;;;;;;0.00;0.00;;;;;-147.47;100.00;64613.53;5059885;28;45573;-80
2023/05/09 05:26:17;;;;;;;;;1.33;1.33;;;;;-147.47;100.00;64613.53;5059592;28;45542;-80
2023/05/09 05:28:42;;;;;;;;;2.00;0.00;;;;;-147.47;100.00;64613.53;5036402;28;45368;-78
2023/05/09 05:31:07;;;;;;;;;2.33;1.00;;;;;-147.47;100.00;64613.53;5061893;28;45514;-79
2023/05/09 05:33:33;;;;;;;;;1.33;1.00;;;;;-147.47;100.00;64613.53;5052098;28;45539;-81
2023/05/09 05:35:58;;;;;;;;;2.67;1.67;;;;;-147.47;100.00;64613.53;5059657;28;46228;-80
2023/05/09 05:38:24;;;;;;;;;3.00;1.00;;;;;-147.47;100.00;64613.53;5054204;28;45385;-80
2023/05/09 05:40:49;;;;;;;;;1.00;1.00;;;;;-147.47;100.00;64613.53;5051664;28;45746;-79
2023/05/09 05:43:15;;;;;;;;;1.00;1.00;;;;;-147.47;100.00;64613.53;5067696;28;45353;-80
2023/05/09 05:45:40;;;;;;;;;4.33;2.00;;;;;-147.47;100.00;64613.53;5051300;28;45687;-80
2023/05/09 05:48:06;;;;;;;;;1.33;1.33;;;;;-147.47;100.00;64613.53;5049492;28;44836;-81
2023/05/09 05:50:32;;;;;;;;;2.00;2.00;;;;;-147.47;100.00;64613.53;5056119;28;45444;-82
2023/05/09 05:52:58;;;;;;;;;3.00;3.00;;;;;-147.47;100.00;64613.53;5049762;27;45584;-79
2023/05/09 05:55:23;;;;;;;;;2.00;2.00;;;;;-147.47;100.00;64613.53;5077306;27;46345;-81
2023/05/09 05:57:49;;;;;;;;;2.00;2.00;;;;;-147.47;100.00;64613.53;5067123;28;45702;-80
2023/05/09 06:00:15;;;;;;;;;2.67;1.67;;;;;-147.47;100.00;64613.53;5074551;28;46480;-81
2023/05/09 06:02:44;;;;;;;;;2.67;2.67;;;;;-147.47;100.00;64613.53;5065353;28;46251;-81
2023/05/09 06:05:11;;;;;;;;;3.00;3.00;;;;;-147.47;100.00;64613.53;5056030;28;47074;-81
2023/05/09 06:07:36;;;;;;;;;2.00;1.33;;;;;-147.47;100.00;64613.53;5067229;28;46115;-82
2023/05/09 06:10:03;;;;;;;;;3.33;2.00;;;;;-147.47;100.00;64613.53;5058180;28;45596;-81
2023/05/09 06:12:28;;;;;;;;;3.00;2.00;;;;;-147.47;100.00;64613.53;5058371;28;46644;-81
2023/05/09 06:14:54;;;;;;;;;3.67;2.00;;;;;-147.47;100.00;64613.53;5063895;27;45526;-80
2023/05/09 06:17:19;;;;;;;;;2.67;2.67;;;;;-147.47;100.00;64613.53;5083051;27;45888;-81
2023/05/09 06:19:45;;;;;;;;;2.00;2.00;;;;;-147.47;100.00;64613.53;5075555;28;45533;-79
2023/05/09 06:22:10;;;;;;;;;2.33;2.00;;;;;-147.47;100.00;64613.53;5065260;28;45803;-81
2023/05/09 06:24:35;;;;;;;;;1.00;1.00;;;;;-147.47;100.00;64613.53;5069964;28;46657;-81
2023/05/09 06:27:01;;;;;;;;;3.00;1.33;;;;;-147.47;100.00;64613.53;5069152;27;45506;-80
2023/05/09 06:29:26;;;;;;;;;1.33;1.33;;;;;-147.47;100.00;64613.53;5048380;28;45746;-80
2023/05/09 06:31:52;;;;;;;;;1.67;1.67;;;;;-147.47;100.00;64613.53;5076746;27;46502;-81
2023/05/09 06:34:18;;;;;;;;;2.67;2.67;;;;;-147.47;100.00;64613.53;5078031;27;45517;-75
2023/05/09 06:36:43;;;;;;;;;2.00;1.00;;;;;-147.47;100.00;64613.53;5055571;28;45424;-76
2023/05/09 06:39:08;;;;;;;;;2.00;2.00;;;;;-147.47;100.00;64613.53;5073102;28;45527;-76
2023/05/09 06:41:34;;;;;;;;;4.00;1.00;;;;;-147.47;100.00;64613.53;5066688;28;45695;-75
2023/05/09 06:44:01;;;;;;;;;1.33;0.67;;;;;-147.47;100.00;64613.53;5047592;27;46031;-77
2023/05/09 06:46:27;;;;;;;;;2.33;2.00;;;;;-147.47;100.00;64613.53;5067258;27;45876;-77
2023/05/09 06:49:00;;;;;;;;;3.00;2.00;;;;;-147.47;100.00;64613.53;5072759;28;45789;-82
2023/05/09 06:51:27;;;;;;;;;3.00;2.00;;;;;-147.47;100.00;64613.53;5059145;28;45654;-75
2023/05/09 06:53:52;;;;;;;;;3.00;2.00;;;;;-147.47;100.00;64613.53;5072536;27;45719;-72
2023/05/09 06:56:20;;;;;;;;;2.33;1.00;;;;;-147.47;100.00;64613.53;5080512;27;45694;-72
2023/05/09 06:58:46;;;;;;;;;3.00;2.00;;;;;-147.47;100.00;64613.53;5073291;28;45908;-75
2023/05/09 07:01:11;;;;;;;;;0.33;0.00;;;;;-147.47;100.00;64613.53;5070664;28;45376;-72
2023/05/09 07:03:38;;;;;;;;;3.00;3.00;;;;;-147.47;100.00;64613.53;5081887;27;45695;-75
2023/05/09 07:06:03;;;;;;;;;3.67;2.33;;;;;-147.47;100.00;64613.53;5074096;27;45433;-72
2023/05/09 07:08:29;;;;;;;;;2.33;2.33;;;;;-147.47;100.00;64613.53;5072946;28;45391;-74
2023/05/09 07:10:55;;;;;;;;;1.33;1.33;;;;;-147.47;100.00;64613.53;5057610;27;45828;-73
2023/05/09 07:13:21;;;;;;;;;1.00;1.00;;;;;-147.47;100.00;64613.53;5067058;27;47082;-75
2023/05/09 07:15:46;;;;;;;;;3.00;2.00;;;;;-147.47;100.00;64613.53;5040717;28;45704;-73
2023/05/09 07:18:12;;;;;;;;;1.00;1.00;;;;;-147.47;100.00;64613.53;5072825;28;45653;-73
2023/05/09 07:20:37;;;;;;;;;1.00;1.00;;;;;-147.47;100.00;64613.53;5071983;28;45483;-73
2023/05/09 07:23:03;;;;;;;;;3.00;2.00;;;;;-147.47;100.00;64613.53;5051689;28;46163;-73
2023/05/09 07:25:29;;;;;;;;;3.67;2.00;;;;;-147.47;100.00;64613.53;5085510;27;45580;-73
2023/05/09 07:27:54;;;;;;;;;1.67;1.67;;;;;-147.47;100.00;64613.53;5063823;28;45481;-73
2023/05/09 07:30:20;;;;;;;;;3.33;2.67;;;;;-147.47;100.00;64613.53;5058611;28;45734;-72
2023/05/09 07:32:45;;;;;;;;;2.33;2.33;;;;;-147.47;100.00;64613.53;5072086;28;45483;-72
2023/05/09 07:35:11;;;;;;;;;1.00;1.00;;;;;-147.47;100.00;64613.53;5080845;27;45570;-74
2023/05/09 07:37:36;;;;;;;;;2.00;2.00;;;;;-147.47;100.00;64613.53;5060454;28;45392;-71
2023/05/09 07:40:04;;;;;;;;;4.00;2.00;;;;;-147.47;100.00;64613.53;5060152;28;46905;-74
2023/05/09 07:42:31;;;;;;;;;1.67;1.67;;;;;-147.47;100.00;64613.53;5043118;28;46994;-73
2023/05/09 07:44:57;;;;;;;;;3.00;1.33;;;;;-147.47;100.00;64613.53;5070327;28;45431;-74
2023/05/09 07:47:23;;;;;;;;;1.33;1.00;;;;;-147.47;100.00;64613.53;5047469;28;45557;-73
2023/05/09 07:49:49;;;;;;;;;2.67;1.67;;;;;-147.47;100.00;64613.53;5073843;28;45449;-73
2023/05/09 07:52:16;;;;;;;;;4.00;1.00;;;;;-147.47;100.00;64613.53;5049471;28;46730;-73
2023/05/09 07:54:45;;;;;;;;;5.00;3.67;;;;;-147.47;100.00;64613.53;5043092;28;45599;-72
2023/05/09 07:57:10;;;;;;;;;1.00;1.00;;;;;-147.47;100.00;64613.53;5053490;28;45720;-72
2023/05/09 07:59:36;;;;;;;;;2.00;2.00;;;;;-147.47;100.00;64613.53;5044933;28;45713;-72
2023/05/09 08:02:02;;;;;;;;;2.00;2.00;;;;;-147.47;100.00;64613.53;5044504;28;46730;-73
2023/05/09 08:04:27;;;;;;;;;1.00;1.00;;;;;-147.47;100.00;64613.53;5041341;28;45451;-72
2023/05/09 08:06:52;;;;;;;;;2.33;0.00;;;;;-147.47;100.00;64613.53;5040299;28;45687;-72
2023/05/09 08:09:18;;;;;;;;;2.00;2.00;;;;;-147.47;100.00;64613.53;5027222;28;45705;-73
2023/05/09 08:11:44;;;;;;;;;3.67;2.33;;;;;-147.47;100.00;64613.53;5048701;28;46335;-72
2023/05/09 08:14:09;;;;;;;;;4.67;2.00;;;;;-147.47;100.00;64613.53;5033565;28;46002;-73
2023/05/09 08:16:35;;;;;;;;;3.00;1.00;;;;;-147.47;100.00;64613.53;5024923;28;46280;-72
2023/05/09 08:19:01;;;;;;;;;1.00;1.00;;;;;-147.47;100.00;64613.53;5051576;28;45630;-73
2023/05/09 08:21:27;;;;;;;;;1.00;1.00;;;;;-147.47;100.00;64613.53;5043564;28;47060;-72
2023/05/09 08:23:52;;;;;;;;;3.33;2.33;;;;;-147.47;100.00;64613.53;5035007;28;45852;-72
2023/05/09 08:26:18;;;;;;;;;2.33;1.00;;;;;-147.47;100.00;64613.53;5050306;28;45730;-72
2023/05/09 08:28:44;;;;;;;;;1.00;1.00;;;;;-147.47;100.00;64613.53;5055958;28;46069;-73
2023/05/09 08:31:09;;;;;;;;;2.67;1.00;;;;;-147.47;100.00;64613.53;5057096;28;45431;-74
2023/05/09 08:33:35;;;;;;;;;3.67;1.00;;;;;-147.47;100.00;64613.53;5056957;28;45419;-73
2023/05/09 08:36:01;;;;;;;;;1.33;1.33;;;;;-147.47;100.00;64613.53;5056082;28;45337;-72
2023/05/09 08:38:27;;;;;;;;;1.00;1.00;;;;;-147.47;100.00;64613.53;5055427;28;45862;-71
2023/05/09 08:40:58;;;;;;;;;1.67;1.67;;;;;-147.47;100.00;64613.53;5052230;28;46049;-72
2023/05/09 08:43:26;;;;;;;;;1.00;1.00;;;;;-147.47;100.00;64613.53;5044882;28;45855;-72
2023/05/09 08:45:57;;;;;;;;;1.00;1.00;;;;;-147.47;100.00;64613.53;5042638;28;45471;-71
2023/05/09 08:48:23;;;;;;;;;4.00;2.00;;;;;-147.47;100.00;64613.53;5046294;28;45419;-74
2023/05/09 08:50:49;;;;;;;;;3.00;3.00;;;;;-147.47;100.00;64613.53;5036913;28;47079;-72
2023/05/09 08:53:15;;;;;;;;;1.00;1.00;;;;;-147.47;100.00;64613.53;5049538;28;45945;-74
2023/05/09 08:55:41;;;;;;;;;1.67;1.67;;;;;-147.47;100.00;64613.53;5047694;28;45429;-74
2023/05/09 08:58:08;;;;;;;;;4.33;1.67;;;;;-147.47;100.00;64613.53;5052070;28;45376;-73
2023/05/09 09:00:35;;;;;;;;;1.33;1.33;;;;;-147.47;100.00;64613.53;5045487;28;45737;-73
2023/05/09 09:03:04;;;;;;;;;1.33;1.00;;;;;-147.47;100.00;64613.53;5027289;28;45476;-73
2023/05/09 09:05:32;;;;;;;;;2.67;2.67;;;;;-147.47;100.00;64613.53;5048978;28;45586;-72
2023/05/09 09:07:58;;;;;;;;;5.00;3.00;;;;;-147.47;100.00;64613.53;5042976;28;45872;-73
2023/05/09 09:10:27;;;;;;;;;2.33;2.33;;;;;-147.47;100.00;64613.53;5023385;28;46434;-74
2023/05/09 09:12:56;;;;;;;;;1.00;1.00;;;;;-147.47;100.00;64613.53;5054701;28;45856;-72
2023/05/09 09:15:25;;;;;;;;;1.67;1.00;;;;;-147.47;100.00;64613.53;5048470;28;45466;-75
2023/05/09 09:17:55;;;;;;;;;0.00;0.00;;;;;-147.47;100.00;64613.53;5053123;28;45810;-73
2023/05/09 09:20:21;;;;;;;;;1.00;1.00;;;;;-147.47;100.00;64613.53;5050107;28;45776;-74
2023/05/09 09:22:51;;;;;;;;;0.00;0.00;;;;;-147.47;100.00;64613.53;5060842;28;45666;-74
2023/05/09 09:25:16;;;;;;;;;0.00;0.00;;;;;-147.47;100.00;64613.53;5052470;28;45400;-73
2023/05/09 09:27:42;;;;;;;;;2.00;2.00;;;;;-147.47;100.00;64613.53;5026170;28;45913;-74
2023/05/09 09:30:09;;;;;;;;;1.00;1.00;;;;;-147.47;100.00;64613.53;5049275;28;46305;-73
2023/05/09 09:32:36;;;;;;;;;2.00;1.00;;;;;-147.47;100.00;64613.53;5027903;28;45824;-75
2023/05/09 09:35:10;;;;;;;;;1.00;1.00;;;;;-147.47;100.00;64613.53;5051219;28;45510;-74
2023/05/09 09:37:38;;;;;;;;;3.00;2.00;;;;;-147.47;100.00;64613.53;5039872;28;45948;-74
2023/05/09 09:40:10;;;;;;;;;1.00;1.00;;;;;-147.47;100.00;64613.53;5072740;28;46557;-75
2023/05/09 09:42:43;;;;;;;;;1.00;1.00;;;;;-147.47;100.00;64613.53;5019527;28;45855;-73
2023/05/09 09:45:11;;;;;;;;;1.75;1.50;;;;;-147.47;100.00;64613.53;5049082;28;45533;-74
2023/05/09 09:47:36;;;;;;;;;1.00;1.00;;;;;-147.47;100.00;64613.53;5029668;28;46160;-73
2023/05/09 09:50:13;;;;;;;;;1.00;1.00;;;;;-147.47;100.00;64613.53;5040466;28;45368;-76
2023/05/09 09:52:50;;;;;;;;;1.25;1.25;;;;;-147.47;100.00;64613.53;5052950;28;45529;-74
2023/05/09 09:55:25;;;;;;;;;2.33;2.33;;;;;-147.47;100.00;64613.53;5075949;28;45790;-79
2023/05/09 09:57:52;;;;;;;;;2.00;1.00;;;;;-147.47;100.00;64613.53;5049594;28;45828;-81
2023/05/09 10:00:23;;;;;;;;;2.00;1.00;;;;;-147.47;100.00;64613.53;5072949;28;46611;-79
2023/05/09 10:02:51;;;;;;;;;2.00;0.00;;;;;-147.47;100.00;64613.53;5072844;28;45618;-78
2023/05/09 10:05:30;;;;;;;;;2.00;1.00;;;;;-147.47;100.00;64613.53;5076400;28;45513;-79
2023/05/09 10:08:00;;;;;;;;;1.50;1.00;;;;;-147.47;100.00;64613.53;5048424;28;45549;-80
2023/05/09 10:10:28;;;;;;;;;1.00;1.00;;;;;-147.47;100.00;64613.53;5071137;28;45421;-80
2023/05/09 10:13:06;;;;;;;;;0.00;0.00;;;;;-147.47;100.00;64613.53;5078689;28;44772;-81
2023/05/09 10:15:33;;;;;;;;;1.00;1.00;;;;;-147.47;100.00;64613.53;5064795;28;44765;-79
2023/05/09 10:18:03;;;;;;;;;1.75;1.00;;;;;-147.47;100.00;64613.53;5072446;28;45485;-81
2023/05/09 10:20:29;;;;;;;;;1.25;1.25;;;;;-147.47;100.00;64613.53;5079113;28;45679;-79
2023/05/09 10:22:57;;;;;;;;;1.75;1.00;;;;;-147.47;100.00;64613.53;5081374;28;44816;-81
2023/05/09 10:25:41;;;;;;;;;1.00;1.00;;;;;-147.47;100.00;64613.53;5069248;28;45813;-80
2023/05/09 10:28:11;;;;;;;;;2.00;2.00;;;;;-147.47;100.00;64613.53;5058025;28;45789;-79
2023/05/09 10:30:45;;;;;;;;;3.00;3.00;;;;;-147.47;100.00;64613.53;5054057;28;47944;-81
2023/05/09 10:33:15;;;;;;;;;0.25;0.25;;;;;-147.47;100.00;64613.53;5070586;27;45666;-80
2023/05/09 10:35:45;;;;;;;;;2.50;1.00;;;;;-147.47;100.00;64613.53;5058464;28;45482;-80
2023/05/09 10:38:11;;;;;;;;;1.00;1.00;;;;;-147.47;100.00;64613.53;5071626;28;45580;-81
2023/05/09 10:40:39;;;;;;;;;3.00;1.75;;;;;-147.47;100.00;64613.53;5065729;28;45540;-80
2023/05/09 10:43:06;;;;;;;;;1.25;1.00;;;;;-147.47;100.00;64613.53;5077656;28;45473;-79
2023/05/09 10:45:32;;;;;;;;;0.00;0.00;;;;;-147.47;100.00;64613.53;5076199;28;45425;-78
2023/05/09 10:48:00;;;;;;;;;1.50;0.75;;;;;-147.47;100.00;64613.53;5075129;28;45579;-80
2023/05/09 10:50:26;;;;;;;;;1.75;1.00;;;;;-147.47;100.00;64613.53;5065096;28;45794;-79
2023/05/09 10:53:13;;;;;;;;;1.00;1.00;;;;;-147.47;100.00;64613.53;5076449;28;45543;-80
2023/05/09 10:55:48;;;;;;;;;1.75;0.00;;;;;-147.47;100.00;64613.53;5075013;28;45761;-80
2023/05/09 10:58:22;;;;;;;;;2.00;1.00;;;;;-147.47;100.00;64613.53;5072916;28;45701;-80
2023/05/09 11:00:50;;;;;;;;;1.00;1.00;;;;;-147.47;100.00;64613.53;5059183;28;47231;-81
2023/05/09 11:03:18;;;;;;;;;2.00;1.00;;;;;-147.47;100.00;64613.53;5073743;28;45491;-82
2023/05/09 11:05:46;;;;;;;;;1.00;1.00;;;;;-147.47;100.00;64613.53;5060048;27;44855;-80
2023/05/09 11:08:22;;;;;;;;;0.25;0.00;;;;;-147.47;100.00;64613.53;5076894;28;45453;-80
2023/05/09 11:10:48;;;;;;;;;0.00;0.00;;;;;-147.47;100.00;64613.53;5072250;28;46177;-80